CheckWX is a tool to help pilots better visualize weather data.  It is not intended as a substitute for an official pre-flight weather briefing.

07:08:17 UTC

TKPK TAF
Robert L. Bradshaw International Airport
Basseterre, Saint Kitts and Nevis
TKPK 190520Z 1906/2006 07010KT P6SM VCSH SCT018 SCT040 FM191400 08015KT P6SM SCT024 FM191800 07015G22KT P6SM FEW030 FM200000 07016KT P6SM SCT025 AMD NOT SKED TIL 191100

Jun-19@
06:00 UTC

Jun-19 @ 06:00 UTC

Jun-19@
14:00 UTC

Jun-19 @ 14:00 UTC

TKPK 190520Z 1906/2006 07010KT P6SM VCSH SCT018 SCT040
Wind
  • 070° at 10 KTS
Cloud Levels
  • Scattered at 1,800' AGL
  • Scattered at 4,000' AGL

Jun-19@
14:00 UTC

Jun-19 @ 14:00 UTC

Jun-19@
18:00 UTC

Jun-19 @ 18:00 UTC

FM191400 08015KT P6SM SCT024

From

From Standard forecast or significant change

Wind
  • 080° at 15 KTS
Cloud Levels
  • Scattered at 2,400' AGL

Jun-19@
18:00 UTC

Jun-19 @ 18:00 UTC

Jun-20@
00:00 UTC

Jun-20 @ 00:00 UTC

FM191800 07015G22KT P6SM FEW030

From

From Standard forecast or significant change

Wind
  • 070° at 15 KTS
  • {Gusting to 22 KTS
Cloud Levels
  • Few at 3,000' AGL

Jun-20@
00:00 UTC

Jun-20 @ 00:00 UTC

Jun-20@
06:00 UTC

Jun-20 @ 06:00 UTC

FM200000 07016KT P6SM SCT025 AMD NOT SKED TIL 191100

From

From Standard forecast or significant change

Wind
  • 070° at 16 KTS
Cloud Levels
  • Scattered at 2,500' AGL